createdAt,value
2023-04-26T00:01:14.934Z,51.17
2023-04-26T00:03:44.631Z,51.34
2023-04-26T00:06:16.465Z,51.53
2023-04-26T00:08:46.005Z,51.48
2023-04-26T00:11:15.165Z,51.33
2023-04-26T00:13:44.768Z,51.21
2023-04-26T00:16:15.069Z,51.54
2023-04-26T00:18:44.844Z,51.34
2023-04-26T00:21:15.389Z,51.89
2023-04-26T00:23:44.876Z,51.39
2023-04-26T00:26:14.052Z,51.57
2023-04-26T00:28:43.516Z,51.79
2023-04-26T00:31:15.630Z,51.54
2023-04-26T00:33:45.239Z,51.71
2023-04-26T00:36:19.310Z,51.62
2023-04-26T00:38:49.120Z,51.72
2023-04-26T00:41:18.310Z,51.75
2023-04-26T00:43:47.814Z,52.07
2023-04-26T00:46:17.156Z,52.29
2023-04-26T00:48:46.824Z,52.06
2023-04-26T00:51:17.403Z,52.32
2023-04-26T00:53:46.959Z,51.65
2023-04-26T00:56:16.134Z,51.91
2023-04-26T00:58:46.489Z,52.14
2023-04-26T01:01:15.796Z,51.91
2023-04-26T01:03:47.028Z,52.53
2023-04-26T01:06:17.975Z,51.87
2023-04-26T01:08:47.592Z,51.75
2023-04-26T01:11:16.897Z,51.88
2023-04-26T01:13:46.377Z,51.53
2023-04-26T01:16:15.789Z,52.05
2023-04-26T01:18:45.303Z,52.16
2023-04-26T01:21:14.472Z,52.21
2023-04-26T01:23:45.778Z,52.30
2023-04-26T01:26:14.970Z,52.17
2023-04-26T01:28:44.411Z,52.39
2023-04-26T01:31:13.686Z,52.26
2023-04-26T01:33:43.315Z,52.24
2023-04-26T01:36:12.564Z,52.14
2023-04-26T01:38:42.118Z,52.37
2023-04-26T01:41:12.695Z,52.00
2023-04-26T01:43:42.337Z,52.74
2023-04-26T01:46:11.678Z,52.88
2023-04-26T01:48:41.306Z,53.19
2023-04-26T01:51:10.434Z,52.89
2023-04-26T01:53:39.950Z,53.10
2023-04-26T01:56:09.199Z,53.30
2023-04-26T01:58:40.080Z,53.45
2023-04-26T02:01:09.873Z,52.96
2023-04-26T02:03:39.494Z,53.37
2023-04-26T02:06:08.920Z,53.12
2023-04-26T02:08:38.309Z,53.52
2023-04-26T02:11:07.553Z,53.37
2023-04-26T02:13:37.514Z,53.20
2023-04-26T02:16:08.645Z,53.26
2023-04-26T02:18:38.140Z,53.33
2023-04-26T02:21:09.174Z,53.51
2023-04-26T02:23:38.681Z,53.43
2023-04-26T02:26:07.937Z,53.60
2023-04-26T02:28:37.460Z,53.56
2023-04-26T02:31:08.113Z,53.79
2023-04-26T02:33:37.681Z,53.80
2023-04-26T02:36:07.226Z,53.81
2023-04-26T02:38:36.840Z,54.01
2023-04-26T02:41:06.153Z,54.55
2023-04-26T02:43:35.614Z,53.88
2023-04-26T02:46:04.742Z,54.24
2023-04-26T02:48:35.699Z,53.92
2023-04-26T02:51:05.036Z,54.33
2023-04-26T02:53:34.514Z,54.33
2023-04-26T02:56:04.011Z,54.40
2023-04-26T02:58:33.700Z,54.26
2023-04-26T03:01:04.308Z,54.43
2023-04-26T03:03:34.052Z,54.42
2023-04-26T03:06:04.770Z,54.63
2023-04-26T03:08:35.208Z,54.65
2023-04-26T03:11:04.358Z,54.28
2023-04-26T03:13:33.911Z,54.81
2023-04-26T03:16:03.177Z,54.52
2023-04-26T03:18:32.717Z,54.59
2023-04-26T03:21:01.858Z,54.43
2023-04-26T03:23:32.841Z,55.11
2023-04-26T03:26:02.030Z,54.89
2023-04-26T03:28:31.557Z,54.55
2023-04-26T03:31:00.895Z,54.86
2023-04-26T03:33:30.509Z,54.56
2023-04-26T03:35:59.828Z,54.61
2023-04-26T03:38:29.269Z,55.23
2023-04-26T03:40:59.918Z,55.30
2023-04-26T03:43:29.346Z,55.01
2023-04-26T03:45:58.531Z,55.28
2023-04-26T03:48:28.114Z,55.04
2023-04-26T03:50:57.338Z,55.29
2023-04-26T03:53:26.826Z,55.12
2023-04-26T03:55:56.052Z,55.09
2023-04-26T03:58:26.963Z,55.28
2023-04-26T04:00:57.740Z,55.27
2023-04-26T04:03:27.772Z,55.62
2023-04-26T04:05:57.163Z,55.49
2023-04-26T04:08:26.735Z,55.09
2023-04-26T04:10:56.740Z,54.90
2023-04-26T04:13:27.833Z,55.16
2023-04-26T04:15:57.131Z,55.02
2023-04-26T04:18:26.864Z,55.07
2023-04-26T04:20:56.194Z,55.08
2023-04-26T04:23:26.333Z,54.95
2023-04-26T04:25:55.754Z,55.27
2023-04-26T04:28:25.398Z,55.42
2023-04-26T04:30:57.345Z,55.59
2023-04-26T04:33:28.810Z,55.61
2023-04-26T04:35:58.921Z,55.12
2023-04-26T04:38:29.475Z,55.65
2023-04-26T04:40:58.656Z,55.30
2023-04-26T04:43:28.679Z,55.44
2023-04-26T04:45:59.566Z,55.60
2023-04-26T04:48:30.104Z,55.68
2023-04-26T04:50:59.717Z,55.77
2023-04-26T04:53:29.145Z,55.27
2023-04-26T04:55:58.330Z,55.42
2023-04-26T04:58:27.992Z,55.33
2023-04-26T05:00:57.139Z,55.85
2023-04-26T05:03:28.327Z,55.36
2023-04-26T05:05:57.624Z,55.92
2023-04-26T05:08:27.345Z,55.62
2023-04-26T05:10:56.961Z,55.84
2023-04-26T05:13:26.453Z,55.59
2023-04-26T05:15:55.578Z,55.74
2023-04-26T05:18:25.242Z,55.74
2023-04-26T05:20:55.770Z,55.65
2023-04-26T05:23:25.307Z,55.61
2023-04-26T05:25:54.448Z,55.75
2023-04-26T05:28:24.047Z,55.33
2023-04-26T05:30:53.227Z,55.37
2023-04-26T05:33:23.013Z,55.04
2023-04-26T05:35:52.691Z,55.58
2023-04-26T05:38:23.655Z,55.50
2023-04-26T05:40:52.824Z,55.49
2023-04-26T05:43:22.443Z,55.48
2023-04-26T05:45:52.161Z,55.31
2023-04-26T05:48:21.953Z,55.36
2023-04-26T05:50:51.326Z,55.75
2023-04-26T05:53:21.156Z,55.51
2023-04-26T05:55:51.671Z,55.55
2023-04-26T05:58:21.170Z,55.57
2023-04-26T06:00:50.257Z,55.81
2023-04-26T06:03:19.909Z,55.91
2023-04-26T06:05:49.378Z,55.57
2023-04-26T06:08:18.982Z,55.99
2023-04-26T06:10:48.067Z,55.63
2023-04-26T06:13:18.965Z,55.80
2023-04-26T06:15:48.043Z,55.41
2023-04-26T06:18:17.613Z,55.80
2023-04-26T06:20:47.218Z,55.72
2023-04-26T06:23:17.696Z,55.41
2023-04-26T06:25:48.334Z,55.82
2023-04-26T06:28:19.405Z,55.49
2023-04-26T06:30:48.672Z,55.44
2023-04-26T06:33:18.321Z,55.29
2023-04-26T06:35:47.531Z,55.27
2023-04-26T06:38:17.076Z,55.42
2023-04-26T06:40:46.816Z,55.35
2023-04-26T06:43:16.402Z,54.55
2023-04-26T06:45:47.012Z,55.28
2023-04-26T06:48:16.541Z,54.92
2023-04-26T06:50:45.676Z,54.68
2023-04-26T06:53:15.299Z,54.90
2023-04-26T06:55:44.728Z,54.63
2023-04-26T06:58:14.347Z,54.98
2023-04-26T07:00:43.481Z,55.09
2023-04-26T07:03:14.706Z,54.86
2023-04-26T07:05:44.128Z,54.69
2023-04-26T07:08:13.727Z,54.49
2023-04-26T07:10:43.060Z,54.69
2023-04-26T07:13:12.510Z,54.62
2023-04-26T07:15:42.421Z,54.43
2023-04-26T07:18:12.315Z,54.46
2023-04-26T07:20:43.009Z,54.15
2023-04-26T07:23:12.459Z,54.17
2023-04-26T07:25:41.619Z,54.06
2023-04-26T07:28:11.335Z,54.25
2023-04-26T07:30:41.334Z,54.30
2023-04-26T07:33:11.006Z,53.97
2023-04-26T07:35:40.339Z,53.88
2023-04-26T07:38:11.296Z,54.00
2023-04-26T07:40:40.582Z,53.77
2023-04-26T07:43:10.028Z,53.75
2023-04-26T07:45:39.275Z,53.64
2023-04-26T07:48:08.937Z,53.96
2023-04-26T07:50:38.190Z,53.26
2023-04-26T07:53:07.801Z,53.19
2023-04-26T07:55:39.031Z,53.13
2023-04-26T07:58:14.758Z,52.77
2023-04-26T08:00:43.990Z,52.83
2023-04-26T08:03:16.544Z,52.55
2023-04-26T08:05:45.864Z,52.59
2023-04-26T08:08:17.152Z,52.82
2023-04-26T08:10:49.178Z,53.10
2023-04-26T08:13:18.668Z,52.67
2023-04-26T08:15:47.863Z,52.93
2023-04-26T08:18:17.403Z,52.68
2023-04-26T08:20:46.611Z,52.66
2023-04-26T08:23:16.161Z,53.07
2023-04-26T08:25:47.281Z,52.60
2023-04-26T08:28:19.130Z,52.34
2023-04-26T08:30:48.320Z,52.74
2023-04-26T08:33:19.192Z,53.23
2023-04-26T08:35:48.381Z,52.86
2023-04-26T08:38:17.829Z,52.72
2023-04-26T08:40:47.137Z,52.89
2023-04-26T08:43:17.132Z,53.18
2023-04-26T08:45:48.334Z,52.94
2023-04-26T08:48:18.435Z,53.24
2023-04-26T08:50:47.816Z,53.05
2023-04-26T08:53:18.087Z,53.35
2023-04-26T08:55:50.543Z,53.30
2023-04-26T08:58:20.230Z,53.17
2023-04-26T09:00:50.854Z,53.12
2023-04-26T09:03:21.117Z,53.38
2023-04-26T09:05:50.402Z,53.42
2023-04-26T09:08:19.840Z,53.11
2023-04-26T09:10:48.980Z,53.11
2023-04-26T09:13:18.503Z,53.07
2023-04-26T09:15:48.248Z,53.12
2023-04-26T09:18:19.578Z,53.07
2023-04-26T09:21:03.330Z,53.32
2023-04-26T09:23:33.137Z,53.41
2023-04-26T09:26:18.510Z,53.63
2023-04-26T09:28:47.995Z,53.58
2023-04-26T09:31:37.050Z,53.57
2023-04-26T09:34:08.890Z,53.91
2023-04-26T09:36:51.015Z,53.73
2023-04-26T09:39:31.843Z,53.88
2023-04-26T09:42:02.094Z,54.24
2023-04-26T09:44:32.465Z,54.37
2023-04-26T09:47:02.292Z,54.15
2023-04-26T09:49:34.712Z,54.04
2023-04-26T09:52:04.581Z,54.10
2023-04-26T09:54:42.187Z,54.26
2023-04-26T09:57:11.414Z,54.89
2023-04-26T09:59:41.499Z,54.83
2023-04-26T10:02:12.114Z,54.72
2023-04-26T10:04:43.224Z,55.41
2023-04-26T10:07:12.444Z,55.84
2023-04-26T10:09:42.180Z,55.60
2023-04-26T10:12:12.762Z,56.43
2023-04-26T10:14:42.828Z,56.54
2023-04-26T10:17:12.243Z,56.51
2023-04-26T10:19:45.165Z,56.50
2023-04-26T10:22:16.472Z,56.26
2023-04-26T10:24:46.131Z,56.40
2023-04-26T10:27:15.322Z,56.08
2023-04-26T10:30:04.500Z,56.24
2023-04-26T10:32:33.701Z,55.93
2023-04-26T10:35:14.588Z,55.46
2023-04-26T10:37:58.524Z,55.34
2023-04-26T10:40:28.623Z,55.13
2023-04-26T10:43:13.797Z,55.28
2023-04-26T10:45:43.835Z,55.30
2023-04-26T10:48:17.644Z,55.29
2023-04-26T10:51:05.664Z,55.74
2023-04-26T10:53:59.541Z,54.96
2023-04-26T10:56:47.447Z,55.01
2023-04-26T10:59:33.815Z,54.66
2023-04-26T11:02:06.685Z,54.36
2023-04-26T11:04:50.617Z,54.66
2023-04-26T11:07:23.139Z,54.56
2023-04-26T11:09:53.912Z,53.92
2023-04-26T11:12:23.504Z,53.40
2023-04-26T11:14:52.765Z,53.43
2023-04-26T11:17:22.317Z,53.67
2023-04-26T11:19:51.504Z,53.82
2023-04-26T11:22:23.011Z,53.62
2023-04-26T11:24:53.676Z,52.60
2023-04-26T11:27:23.256Z,52.45
2023-04-26T11:29:52.459Z,51.79
2023-04-26T11:32:21.922Z,52.00
2023-04-26T11:34:52.087Z,51.92
2023-04-26T11:37:22.026Z,52.34
2023-04-26T11:39:51.506Z,52.63
2023-04-26T11:42:26.204Z,52.36
2023-04-26T11:44:56.421Z,51.50
2023-04-26T11:47:26.257Z,51.88
2023-04-26T11:49:55.416Z,50.50
2023-04-26T11:52:24.888Z,50.22
2023-04-26T11:55:01.402Z,49.83
2023-04-26T11:57:32.938Z,48.83
2023-04-26T12:00:15.161Z,47.72
2023-04-26T12:02:48.284Z,46.75
2023-04-26T12:05:24.366Z,47.47
2023-04-26T12:07:55.495Z,47.80
2023-04-26T12:10:26.175Z,47.70
2023-04-26T12:12:57.568Z,46.55
2023-04-26T12:15:27.224Z,46.81
2023-04-26T12:17:57.268Z,46.70
2023-04-26T12:20:34.515Z,44.91
2023-04-26T12:23:06.740Z,44.46
2023-04-26T12:25:36.287Z,45.46
2023-04-26T12:28:12.278Z,45.45
2023-04-26T12:30:41.824Z,43.86
2023-04-26T12:33:16.963Z,44.23
2023-04-26T12:35:46.910Z,44.29
2023-04-26T12:38:16.504Z,43.69
2023-04-26T12:40:45.730Z,44.21
2023-04-26T12:43:17.194Z,44.30
2023-04-26T12:45:49.848Z,44.19
2023-04-26T12:48:19.412Z,44.39
2023-04-26T12:50:50.073Z,44.77
2023-04-26T12:53:20.609Z,45.00
2023-04-26T12:55:49.907Z,45.23
2023-04-26T12:58:22.495Z,44.92
2023-04-26T13:00:51.962Z,45.28
2023-04-26T13:03:21.582Z,45.33
2023-04-26T13:05:51.015Z,45.18
2023-04-26T13:08:20.660Z,43.62
2023-04-26T13:10:49.893Z,44.01
2023-04-26T13:13:26.354Z,43.34
2023-04-26T13:16:01.853Z,41.78
2023-04-26T13:18:31.600Z,41.62
2023-04-26T13:21:00.684Z,40.29
2023-04-26T13:23:30.242Z,40.66
2023-04-26T13:25:59.440Z,40.69
2023-04-26T13:28:30.359Z,39.36
2023-04-26T13:30:59.707Z,40.53
2023-04-26T13:33:29.280Z,39.96
2023-04-26T13:35:58.430Z,38.93
2023-04-26T13:38:27.942Z,38.18
2023-04-26T13:40:57.161Z,38.39
2023-04-26T13:43:26.669Z,37.81
2023-04-26T13:45:57.552Z,39.77
2023-04-26T13:48:30.683Z,37.68
2023-04-26T13:50:59.881Z,38.91
2023-04-26T13:53:31.760Z,36.47
2023-04-26T13:56:00.816Z,38.17
2023-04-26T13:58:30.258Z,37.75
2023-04-26T14:01:00.973Z,36.40
2023-04-26T14:03:30.558Z,37.01
2023-04-26T14:05:59.813Z,37.76
2023-04-26T14:08:29.306Z,37.52
2023-04-26T14:10:58.579Z,37.23
2023-04-26T14:13:28.098Z,38.50
2023-04-26T14:15:57.395Z,38.55
2023-04-26T14:18:28.365Z,38.22
2023-04-26T14:20:57.601Z,37.98
2023-04-26T14:23:27.275Z,36.64
2023-04-26T14:25:56.444Z,38.31
2023-04-26T14:28:25.952Z,38.19
2023-04-26T14:30:55.329Z,38.23
2023-04-26T14:33:25.244Z,37.92
2023-04-26T14:35:56.678Z,37.33
2023-04-26T14:38:26.649Z,38.00
2023-04-26T14:40:55.977Z,37.34
2023-04-26T14:43:25.467Z,36.68
2023-04-26T14:45:55.572Z,38.00
2023-04-26T14:48:26.168Z,38.36
2023-04-26T14:51:00.797Z,37.45
2023-04-26T14:53:30.404Z,37.96
2023-04-26T14:55:59.645Z,37.94
2023-04-26T14:58:29.244Z,37.88
2023-04-26T15:00:58.967Z,38.32
2023-04-26T15:03:28.558Z,38.85
2023-04-26T15:05:57.702Z,37.58
2023-04-26T15:08:28.736Z,36.64
2023-04-26T15:10:57.874Z,37.44
2023-04-26T15:13:27.325Z,36.52
2023-04-26T15:15:56.428Z,36.35
2023-04-26T15:18:26.024Z,35.74
2023-04-26T15:20:55.365Z,36.91
2023-04-26T15:23:25.076Z,35.63
2023-04-26T15:25:55.778Z,36.98
2023-04-26T15:28:25.390Z,36.38
2023-04-26T15:30:55.774Z,36.32
2023-04-26T15:33:25.317Z,35.92
2023-04-26T15:35:54.404Z,34.25
2023-04-26T15:38:23.867Z,34.43
2023-04-26T15:40:53.904Z,33.83
2023-04-26T15:43:24.916Z,33.92
2023-04-26T15:45:54.264Z,34.66
2023-04-26T15:48:23.887Z,34.77
2023-04-26T15:50:53.932Z,35.41
2023-04-26T15:53:24.098Z,35.28
2023-04-26T15:55:53.224Z,34.18
2023-04-26T15:58:22.793Z,35.05
2023-04-26T16:00:53.391Z,35.44
2023-04-26T16:03:23.657Z,35.80
2023-04-26T16:05:53.161Z,35.31
2023-04-26T16:08:39.429Z,35.95
2023-04-26T16:11:09.309Z,36.01
2023-04-26T16:13:38.732Z,36.05
2023-04-26T16:16:10.893Z,36.36
2023-04-26T16:18:40.800Z,36.64
2023-04-26T16:21:10.257Z,37.12
2023-04-26T16:23:41.686Z,37.23
2023-04-26T16:26:10.838Z,37.37
2023-04-26T16:28:40.767Z,37.51
2023-04-26T16:31:11.276Z,37.25
2023-04-26T16:33:40.895Z,37.29
2023-04-26T16:36:10.995Z,37.53
2023-04-26T16:38:40.559Z,37.50
2023-04-26T16:41:09.632Z,37.52
2023-04-26T16:43:39.148Z,37.85
2023-04-26T16:46:08.872Z,37.96
2023-04-26T16:48:40.189Z,37.94
2023-04-26T19:17:12.569Z,44.83
2023-04-26T19:19:45.048Z,44.66
2023-04-26T19:22:14.360Z,44.69
2023-04-26T19:24:44.610Z,44.50
2023-04-26T19:27:15.315Z,44.43
2023-04-26T19:29:46.108Z,44.18
2023-04-26T19:32:19.067Z,44.32
2023-04-26T19:34:48.580Z,44.13
2023-04-26T19:37:17.737Z,44.35
2023-04-26T19:39:47.278Z,44.48
2023-04-26T19:42:16.538Z,44.06
2023-04-26T19:44:46.320Z,44.38
2023-04-26T19:47:16.791Z,44.05
2023-04-26T19:49:47.858Z,44.39
2023-04-26T19:52:17.267Z,44.39
2023-04-26T19:54:46.799Z,44.46
2023-04-26T19:57:15.930Z,44.65
2023-04-26T19:59:45.389Z,44.35
2023-04-26T20:02:14.655Z,44.50
2023-04-26T20:04:46.107Z,44.33
2023-04-26T20:07:15.278Z,44.63
2023-04-26T20:09:44.759Z,44.67
2023-04-26T20:12:13.875Z,44.93
2023-04-26T20:14:43.369Z,44.88
2023-04-26T20:17:12.533Z,44.87
2023-04-26T20:19:42.849Z,44.82
2023-04-26T20:22:13.446Z,44.70
2023-04-26T20:24:43.857Z,44.82
2023-04-26T20:27:13.234Z,44.63
2023-04-26T20:29:42.803Z,45.21
2023-04-26T20:32:11.965Z,45.46
2023-04-26T20:34:41.565Z,45.24
2023-04-26T20:37:10.953Z,45.15
2023-04-26T20:39:41.869Z,45.02
2023-04-26T20:42:11.019Z,45.09
2023-04-26T20:44:40.471Z,45.26
2023-04-26T20:47:09.701Z,45.38
2023-04-26T20:49:39.166Z,45.50
2023-04-26T20:52:08.332Z,45.21
2023-04-26T20:54:37.831Z,45.22
2023-04-26T20:57:08.394Z,45.24
2023-04-26T20:59:37.863Z,45.92
2023-04-26T21:02:07.881Z,45.84
2023-04-26T21:04:39.687Z,45.84
2023-04-26T21:07:09.035Z,45.73
2023-04-26T21:09:38.869Z,45.87
2023-04-26T21:12:09.709Z,46.15
2023-04-26T21:14:39.316Z,45.91
2023-04-26T21:17:08.478Z,45.90
2023-04-26T21:19:38.050Z,46.03
2023-04-26T21:22:09.382Z,46.14
2023-04-26T21:24:38.959Z,46.58
2023-04-26T21:27:09.696Z,46.48
2023-04-26T21:29:39.348Z,46.26
2023-04-26T21:32:08.550Z,46.49
2023-04-26T21:34:38.278Z,46.18
2023-04-26T21:37:07.352Z,46.62
2023-04-26T21:39:36.977Z,46.20
2023-04-26T21:42:06.364Z,46.30
2023-04-26T21:44:37.490Z,46.10
2023-04-26T21:47:06.968Z,46.23
2023-04-26T21:49:36.628Z,46.17
2023-04-26T21:52:05.932Z,46.40
2023-04-26T21:54:35.973Z,46.75
2023-04-26T21:57:07.058Z,46.26
2023-04-26T21:59:42.201Z,46.67
2023-04-26T22:02:11.452Z,46.57
2023-04-26T22:04:41.007Z,46.75
2023-04-26T22:07:09.897Z,46.87
2023-04-26T22:09:39.098Z,46.94
2023-04-26T22:12:09.316Z,46.59
2023-04-26T22:14:40.053Z,46.61
2023-04-26T22:17:09.044Z,46.71
2023-04-26T22:19:38.319Z,46.75
2023-04-26T22:22:07.216Z,46.61
2023-04-26T22:24:36.895Z,47.09
2023-04-26T22:27:05.793Z,47.39
2023-04-26T22:29:35.046Z,47.38
2023-04-26T22:32:05.750Z,47.36
2023-04-26T22:34:35.098Z,47.49
2023-04-26T22:37:17.087Z,47.52
2023-04-26T22:39:49.318Z,47.83
2023-04-26T22:42:18.227Z,48.20
2023-04-26T22:44:47.795Z,48.39
2023-04-26T22:47:18.559Z,48.64
2023-04-26T22:49:48.771Z,48.79
2023-04-26T22:52:30.378Z,48.36
2023-04-26T22:55:01.062Z,48.75
2023-04-26T22:57:30.084Z,48.92
2023-04-26T22:59:59.410Z,48.86
2023-04-26T23:02:29.792Z,49.18
2023-04-26T23:04:59.170Z,49.51
2023-04-26T23:07:28.194Z,49.87
2023-04-26T23:09:57.608Z,50.06
2023-04-26T23:12:27.799Z,50.37
2023-04-26T23:14:57.608Z,50.20
2023-04-26T23:17:26.784Z,50.17
2023-04-26T23:19:58.675Z,50.01
2023-04-26T23:22:28.247Z,50.09
2023-04-26T23:24:57.492Z,50.24
2023-04-26T23:27:26.722Z,49.63
2023-04-26T23:29:56.868Z,50.03
2023-04-26T23:32:25.809Z,50.22
2023-04-26T23:34:55.083Z,50.44
2023-04-26T23:37:25.341Z,50.26
2023-04-26T23:39:54.592Z,50.09
2023-04-26T23:42:23.559Z,49.99
2023-04-26T23:44:52.798Z,50.42
2023-04-26T23:47:21.673Z,50.75
2023-04-26T23:49:50.959Z,51.17
2023-04-26T23:52:19.891Z,51.17
2023-04-26T23:54:50.619Z,50.99
2023-04-26T23:57:19.568Z,50.72
2023-04-26T23:59:48.780Z,50.84
